sensor_id;sensor_type;location;lat;lon;timestamp;pressure;altitude;pressure_sealevel;temperature;humidity
30935;BME280;51033;42.648;23.292;2022-07-23T00:00:56;94150.50;;;23.60;35.28
30935;BME280;51033;42.648;23.292;2022-07-23T00:03:21;94153.53;;;23.48;35.67
30935;BME280;51033;42.648;23.292;2022-07-23T00:05:46;94153.59;;;23.55;35.40
30935;BME280;51033;42.648;23.292;2022-07-23T00:08:12;94142.31;;;23.35;35.75
30935;BME280;51033;42.648;23.292;2022-07-23T00:10:37;94157.41;;;23.47;35.56
30935;BME280;51033;42.648;23.292;2022-07-23T00:13:03;94153.53;;;23.44;35.51
30935;BME280;51033;42.648;23.292;2022-07-23T00:15:28;94164.03;;;23.46;35.60
30935;BME280;51033;42.648;23.292;2022-07-23T00:17:54;94161.28;;;23.39;35.59
30935;BME280;51033;42.648;23.292;2022-07-23T00:20:19;94161.69;;;23.27;36.33
30935;BME280;51033;42.648;23.292;2022-07-23T00:22:48;94168.25;;;23.26;36.58
30935;BME280;51033;42.648;23.292;2022-07-23T00:25:14;94173.66;;;23.22;37.20
30935;BME280;51033;42.648;23.292;2022-07-23T00:27:39;94159.28;;;23.07;37.44
30935;BME280;51033;42.648;23.292;2022-07-23T00:30:05;94166.66;;;23.07;37.41
30935;BME280;51033;42.648;23.292;2022-07-23T00:32:31;94154.22;;;22.99;37.06
30935;BME280;51033;42.648;23.292;2022-07-23T00:34:56;94156.97;;;23.06;37.22
30935;BME280;51033;42.648;23.292;2022-07-23T00:37:21;94167.03;;;23.12;37.13
30935;BME280;51033;42.648;23.292;2022-07-23T00:39:47;94177.16;;;23.23;37.26
30935;BME280;51033;42.648;23.292;2022-07-23T00:42:12;94172.09;;;23.14;36.90
30935;BME280;51033;42.648;23.292;2022-07-23T00:44:37;94143.34;;;22.88;37.05
30935;BME280;51033;42.648;23.292;2022-07-23T00:47:03;94173.63;;;23.01;36.77
30935;BME280;51033;42.648;23.292;2022-07-23T00:49:31;94170.53;;;23.02;36.84
30935;BME280;51033;42.648;23.292;2022-07-23T00:51:57;94136.31;;;22.77;36.39
30935;BME280;51033;42.648;23.292;2022-07-23T00:54:24;94168.16;;;22.94;36.69
30935;BME280;51033;42.648;23.292;2022-07-23T00:56:50;94159.66;;;22.95;36.82
30935;BME280;51033;42.648;23.292;2022-07-23T00:59:16;94158.88;;;22.91;36.98
30935;BME280;51033;42.648;23.292;2022-07-23T01:01:42;94140.16;;;22.68;37.52
30935;BME280;51033;42.648;23.292;2022-07-23T01:04:09;94147.94;;;22.77;37.59
30935;BME280;51033;42.648;23.292;2022-07-23T01:06:36;94161.09;;;22.75;37.85
30935;BME280;51033;42.648;23.292;2022-07-23T01:09:03;94147.13;;;22.69;37.76
30935;BME280;51033;42.648;23.292;2022-07-23T01:11:29;94165.78;;;22.85;37.91
30935;BME280;51033;42.648;23.292;2022-07-23T01:13:55;94145.16;;;22.56;38.39
30935;BME280;51033;42.648;23.292;2022-07-23T01:16:20;94151.34;;;22.53;38.75
30935;BME280;51033;42.648;23.292;2022-07-23T01:18:46;94157.13;;;22.55;38.63
30935;BME280;51033;42.648;23.292;2022-07-23T01:21:12;94162.53;;;22.48;38.99
30935;BME280;51033;42.648;23.292;2022-07-23T01:23:38;94151.66;;;22.37;39.11
30935;BME280;51033;42.648;23.292;2022-07-23T01:26:04;94151.66;;;22.41;39.01
30935;BME280;51033;42.648;23.292;2022-07-23T01:28:29;94142.31;;;22.27;39.19
30935;BME280;51033;42.648;23.292;2022-07-23T01:30:55;94160.50;;;22.30;39.58
30935;BME280;51033;42.648;23.292;2022-07-23T01:33:20;94157.00;;;22.26;39.42
30935;BME280;51033;42.648;23.292;2022-07-23T01:35:46;94141.81;;;22.15;39.79
30935;BME280;51033;42.648;23.292;2022-07-23T01:38:11;94154.72;;;22.32;39.64
30935;BME280;51033;42.648;23.292;2022-07-23T01:40:36;94157.69;;;22.16;39.66
30935;BME280;51033;42.648;23.292;2022-07-23T01:43:02;94146.94;;;22.23;39.66
30935;BME280;51033;42.648;23.292;2022-07-23T01:45:27;94139.13;;;22.18;39.17
30935;BME280;51033;42.648;23.292;2022-07-23T01:47:53;94151.22;;;22.28;38.72
30935;BME280;51033;42.648;23.292;2022-07-23T01:50:18;94152.44;;;22.38;38.41
30935;BME280;51033;42.648;23.292;2022-07-23T01:52:43;94125.25;;;22.23;38.39
30935;BME280;51033;42.648;23.292;2022-07-23T01:55:09;94156.69;;;22.39;38.30
30935;BME280;51033;42.648;23.292;2022-07-23T01:57:34;94119.38;;;22.14;38.28
30935;BME280;51033;42.648;23.292;2022-07-23T02:00:00;94152.00;;;22.28;38.15
30935;BME280;51033;42.648;23.292;2022-07-23T02:02:25;94156.22;;;22.29;37.63
30935;BME280;51033;42.648;23.292;2022-07-23T02:04:51;94139.19;;;22.22;37.31
30935;BME280;51033;42.648;23.292;2022-07-23T02:07:16;94131.75;;;22.15;37.28
30935;BME280;51033;42.648;23.292;2022-07-23T02:09:42;94152.00;;;22.36;37.20
30935;BME280;51033;42.648;23.292;2022-07-23T02:12:07;94133.03;;;22.28;36.98
30935;BME280;51033;42.648;23.292;2022-07-23T02:14:33;94150.88;;;22.37;36.74
30935;BME280;51033;42.648;23.292;2022-07-23T02:16:58;94126.03;;;22.27;36.73
30935;BME280;51033;42.648;23.292;2022-07-23T02:19:24;94154.00;;;22.46;36.75
30935;BME280;51033;42.648;23.292;2022-07-23T02:21:50;94149.38;;;22.46;36.50
30935;BME280;51033;42.648;23.292;2022-07-23T02:24:15;94146.22;;;22.34;36.68
30935;BME280;51033;42.648;23.292;2022-07-23T02:26:41;94136.72;;;22.06;37.00
30935;BME280;51033;42.648;23.292;2022-07-23T02:29:07;94146.16;;;22.23;37.30
30935;BME280;51033;42.648;23.292;2022-07-23T02:31:33;94153.88;;;22.24;36.79
30935;BME280;51033;42.648;23.292;2022-07-23T02:33:59;94136.78;;;22.13;37.19
30935;BME280;51033;42.648;23.292;2022-07-23T02:36:24;94135.22;;;22.09;37.95
30935;BME280;51033;42.648;23.292;2022-07-23T02:38:50;94156.53;;;22.17;37.89
30935;BME280;51033;42.648;23.292;2022-07-23T02:41:15;94156.91;;;22.16;37.59
30935;BME280;51033;42.648;23.292;2022-07-23T02:43:41;94073.75;;;21.58;37.86
30935;BME280;51033;42.648;23.292;2022-07-23T02:46:06;94157.69;;;22.16;37.74
30935;BME280;51033;42.648;23.292;2022-07-23T02:48:32;94166.22;;;22.18;37.66
30935;BME280;51033;42.648;23.292;2022-07-23T02:50:58;94169.22;;;22.06;38.10
30935;BME280;51033;42.648;23.292;2022-07-23T02:53:23;94093.06;;;21.57;37.75
30935;BME280;51033;42.648;23.292;2022-07-23T02:55:49;94165.31;;;22.00;38.02
30935;BME280;51033;42.648;23.292;2022-07-23T02:58:14;94169.13;;;21.92;38.47
30935;BME280;51033;42.648;23.292;2022-07-23T03:00:40;94170.19;;;21.80;38.63
30935;BME280;51033;42.648;23.292;2022-07-23T03:03:05;94166.75;;;21.83;38.87
30935;BME280;51033;42.648;23.292;2022-07-23T03:05:31;94180.63;;;21.78;38.86
30935;BME280;51033;42.648;23.292;2022-07-23T03:07:57;94164.31;;;21.68;38.62
30935;BME280;51033;42.648;23.292;2022-07-23T03:10:22;94176.75;;;21.76;38.48
30935;BME280;51033;42.648;23.292;2022-07-23T03:12:48;94167.53;;;21.84;38.66
30935;BME280;51033;42.648;23.292;2022-07-23T03:15:13;94170.63;;;21.86;38.73
30935;BME280;51033;42.648;23.292;2022-07-23T03:17:38;94174.78;;;21.73;38.87
30935;BME280;51033;42.648;23.292;2022-07-23T03:20:04;94191.81;;;21.73;39.04
30935;BME280;51033;42.648;23.292;2022-07-23T03:22:30;94172.44;;;21.68;39.26
30935;BME280;51033;42.648;23.292;2022-07-23T03:24:55;94194.97;;;21.79;39.29
30935;BME280;51033;42.648;23.292;2022-07-23T03:27:25;94201.44;;;21.71;39.87
30935;BME280;51033;42.648;23.292;2022-07-23T03:29:53;94199.81;;;21.59;39.92
30935;BME280;51033;42.648;23.292;2022-07-23T03:32:19;94191.50;;;21.41;40.13
30935;BME280;51033;42.648;23.292;2022-07-23T03:34:44;94197.31;;;21.43;40.56
30935;BME280;51033;42.648;23.292;2022-07-23T03:37:10;94168.50;;;21.21;40.55
30935;BME280;51033;42.648;23.292;2022-07-23T03:39:35;94171.28;;;21.28;41.08
30935;BME280;51033;42.648;23.292;2022-07-23T03:42:01;94195.75;;;21.42;41.61
30935;BME280;51033;42.648;23.292;2022-07-23T03:44:27;94190.75;;;21.41;41.25
30935;BME280;51033;42.648;23.292;2022-07-23T03:46:52;94206.00;;;21.60;42.00
30935;BME280;51033;42.648;23.292;2022-07-23T03:49:18;94201.78;;;21.66;41.87
30935;BME280;51033;42.648;23.292;2022-07-23T03:51:43;94202.97;;;21.65;41.88
30935;BME280;51033;42.648;23.292;2022-07-23T03:54:09;94202.97;;;21.65;42.24
30935;BME280;51033;42.648;23.292;2022-07-23T03:56:34;94211.53;;;21.70;42.06
30935;BME280;51033;42.648;23.292;2022-07-23T03:59:00;94194.50;;;21.70;42.25
30935;BME280;51033;42.648;23.292;2022-07-23T04:01:26;94198.44;;;21.79;42.21
30935;BME280;51033;42.648;23.292;2022-07-23T04:03:51;94200.81;;;21.88;42.23
30935;BME280;51033;42.648;23.292;2022-07-23T04:06:17;94183.78;;;21.84;42.17
30935;BME280;51033;42.648;23.292;2022-07-23T04:08:43;94204.06;;;22.04;42.65
30935;BME280;51033;42.648;23.292;2022-07-23T04:11:08;94192.38;;;22.00;42.88
30935;BME280;51033;42.648;23.292;2022-07-23T04:13:33;94205.66;;;22.12;42.94
30935;BME280;51033;42.648;23.292;2022-07-23T04:15:59;94202.53;;;22.10;42.92
30935;BME280;51033;42.648;23.292;2022-07-23T04:18:24;94194.09;;;22.19;42.23
30935;BME280;51033;42.648;23.292;2022-07-23T04:20:53;94190.66;;;22.25;42.07
30935;BME280;51033;42.648;23.292;2022-07-23T04:23:18;94189.53;;;22.30;41.78
30935;BME280;51033;42.648;23.292;2022-07-23T04:25:43;94201.13;;;22.23;41.25
30935;BME280;51033;42.648;23.292;2022-07-23T04:28:09;94205.00;;;22.29;41.21
30935;BME280;51033;42.648;23.292;2022-07-23T04:30:34;94196.84;;;22.26;41.13
30935;BME280;51033;42.648;23.292;2022-07-23T04:33:00;94206.66;;;22.45;41.25
30935;BME280;51033;42.648;23.292;2022-07-23T04:35:25;94215.19;;;22.50;41.41
30935;BME280;51033;42.648;23.292;2022-07-23T04:37:51;94193.44;;;22.40;41.62
30935;BME280;51033;42.648;23.292;2022-07-23T04:40:16;94205.13;;;22.51;41.19
30935;BME280;51033;42.648;23.292;2022-07-23T04:42:42;94144.50;;;22.11;41.03
30935;BME280;51033;42.648;23.292;2022-07-23T04:45:07;94212.84;;;22.49;41.23
30935;BME280;51033;42.648;23.292;2022-07-23T04:47:33;94214.47;;;22.53;41.39
30935;BME280;51033;42.648;23.292;2022-07-23T04:49:58;94205.19;;;22.58;41.20
30935;BME280;51033;42.648;23.292;2022-07-23T04:52:24;94194.31;;;22.54;40.15
30935;BME280;51033;42.648;23.292;2022-07-23T04:54:49;94213.25;;;22.51;39.77
30935;BME280;51033;42.648;23.292;2022-07-23T04:57:15;94231.34;;;22.33;40.58
30935;BME280;51033;42.648;23.292;2022-07-23T04:59:41;94219.31;;;22.30;41.15
30935;BME280;51033;42.648;23.292;2022-07-23T05:02:06;94217.56;;;22.59;40.74
30935;BME280;51033;42.648;23.292;2022-07-23T05:04:31;94217.66;;;22.77;40.45
30935;BME280;51033;42.648;23.292;2022-07-23T05:06:57;94227.06;;;22.93;39.98
30935;BME280;51033;42.648;23.292;2022-07-23T05:09:23;94226.00;;;23.19;40.26
30935;BME280;51033;42.648;23.292;2022-07-23T05:11:49;94205.84;;;23.17;39.97
30935;BME280;51033;42.648;23.292;2022-07-23T05:14:15;94207.03;;;23.26;39.20
30935;BME280;51033;42.648;23.292;2022-07-23T05:16:40;94215.94;;;23.27;38.96
30935;BME280;51033;42.648;23.292;2022-07-23T05:19:06;94227.56;;;23.24;38.88
30935;BME280;51033;42.648;23.292;2022-07-23T05:21:32;94206.63;;;23.21;38.52
30935;BME280;51033;42.648;23.292;2022-07-23T05:23:57;94230.69;;;23.47;38.48
30935;BME280;51033;42.648;23.292;2022-07-23T05:26:23;94237.38;;;23.60;38.28
30935;BME280;51033;42.648;23.292;2022-07-23T05:28:48;94223.03;;;23.60;38.05
30935;BME280;51033;42.648;23.292;2022-07-23T05:31:13;94233.88;;;23.77;38.67
30935;BME280;51033;42.648;23.292;2022-07-23T05:33:39;94215.25;;;23.72;37.64
30935;BME280;51033;42.648;23.292;2022-07-23T05:36:05;94181.47;;;23.41;37.56
30935;BME280;51033;42.648;23.292;2022-07-23T05:38:31;94236.22;;;23.82;37.82
30935;BME280;51033;42.648;23.292;2022-07-23T05:40:57;94214.13;;;23.87;38.82
30935;BME280;51033;42.648;23.292;2022-07-23T05:43:23;94228.06;;;23.96;38.84
30935;BME280;51033;42.648;23.292;2022-07-23T05:45:48;94234.31;;;24.22;38.62
30935;BME280;51033;42.648;23.292;2022-07-23T05:48:14;94222.25;;;23.91;37.58
30935;BME280;51033;42.648;23.292;2022-07-23T05:50:39;94235.09;;;24.12;38.63
30935;BME280;51033;42.648;23.292;2022-07-23T05:53:04;94207.13;;;24.22;38.95
30935;BME280;51033;42.648;23.292;2022-07-23T05:55:30;94231.97;;;24.38;38.88
30935;BME280;51033;42.648;23.292;2022-07-23T05:57:57;94229.63;;;24.47;38.86
30935;BME280;51033;42.648;23.292;2022-07-23T06:00:23;94236.63;;;24.48;39.76
30935;BME280;51033;42.648;23.292;2022-07-23T06:02:49;94220.28;;;24.62;39.06
30935;BME280;51033;42.648;23.292;2022-07-23T06:05:14;94210.94;;;24.77;38.82
30935;BME280;51033;42.648;23.292;2022-07-23T06:07:40;94204.69;;;24.88;38.32
30935;BME280;51033;42.648;23.292;2022-07-23T06:10:06;94213.91;;;25.08;38.50
30935;BME280;51033;42.648;23.292;2022-07-23T06:12:31;94220.91;;;25.12;38.32
30935;BME280;51033;42.648;23.292;2022-07-23T06:14:56;94192.19;;;24.94;38.57
30935;BME280;51033;42.648;23.292;2022-07-23T06:17:22;94209.59;;;25.21;38.67
30935;BME280;51033;42.648;23.292;2022-07-23T06:19:48;94219.22;;;25.43;37.77
30935;BME280;51033;42.648;23.292;2022-07-23T06:22:13;94221.47;;;25.52;37.77
30935;BME280;51033;42.648;23.292;2022-07-23T06:24:38;94219.19;;;25.50;38.34
30935;BME280;51033;42.648;23.292;2022-07-23T06:27:04;94222.34;;;25.38;37.60
30935;BME280;51033;42.648;23.292;2022-07-23T06:29:29;94223.78;;;25.60;37.78
30935;BME280;51033;42.648;23.292;2022-07-23T06:31:55;94205.81;;;25.66;37.89
30935;BME280;51033;42.648;23.292;2022-07-23T06:34:20;94204.25;;;25.69;37.10
30935;BME280;51033;42.648;23.292;2022-07-23T06:36:45;94223.19;;;25.87;37.13
30935;BME280;51033;42.648;23.292;2022-07-23T06:39:11;94219.31;;;25.88;37.22
30935;BME280;51033;42.648;23.292;2022-07-23T06:41:36;94211.13;;;25.95;36.34
30935;BME280;51033;42.648;23.292;2022-07-23T06:44:02;94220.31;;;26.11;36.31
30935;BME280;51033;42.648;23.292;2022-07-23T06:46:28;94219.44;;;26.22;35.38
30935;BME280;51033;42.648;23.292;2022-07-23T06:48:53;94223.38;;;26.17;35.97
30935;BME280;51033;42.648;23.292;2022-07-23T06:51:18;94215.41;;;26.37;35.89
30935;BME280;51033;42.648;23.292;2022-07-23T06:53:44;94215.81;;;26.35;35.30
30935;BME280;51033;42.648;23.292;2022-07-23T06:56:10;94192.53;;;26.27;34.88
30935;BME280;51033;42.648;23.292;2022-07-23T06:58:35;94202.09;;;26.46;35.35
30935;BME280;51033;42.648;23.292;2022-07-23T07:01:01;94195.78;;;26.11;34.63
30935;BME280;51033;42.648;23.292;2022-07-23T07:03:26;94215.75;;;26.46;34.39
30935;BME280;51033;42.648;23.292;2022-07-23T07:05:52;94216.38;;;26.16;34.64
30935;BME280;51033;42.648;23.292;2022-07-23T07:08:18;94211.53;;;25.90;34.55
30935;BME280;51033;42.648;23.292;2022-07-23T07:10:43;94216.56;;;25.95;35.10
30935;BME280;51033;42.648;23.292;2022-07-23T07:13:09;94214.03;;;26.18;35.26
30935;BME280;51033;42.648;23.292;2022-07-23T07:15:34;94174.84;;;26.05;35.55
30935;BME280;51033;42.648;23.292;2022-07-23T07:18:00;94210.69;;;26.44;34.67
30935;BME280;51033;42.648;23.292;2022-07-23T07:20:25;94214.94;;;26.49;34.78
30935;BME280;51033;42.648;23.292;2022-07-23T07:22:51;94201.00;;;25.95;34.93
30935;BME280;51033;42.648;23.292;2022-07-23T07:25:16;94199.41;;;25.98;35.46
30935;BME280;51033;42.648;23.292;2022-07-23T07:27:42;94201.53;;;26.24;35.97
30935;BME280;51033;42.648;23.292;2022-07-23T07:30:10;94176.41;;;26.40;35.69
30935;BME280;51033;42.648;23.292;2022-07-23T07:32:35;94196.94;;;26.59;37.00
30935;BME280;51033;42.648;23.292;2022-07-23T07:35:05;94189.13;;;26.16;35.82
30935;BME280;51033;42.648;23.292;2022-07-23T07:37:31;94172.19;;;26.35;35.90
30935;BME280;51033;42.648;23.292;2022-07-23T07:39:56;94181.78;;;26.54;35.02
30935;BME280;51033;42.648;23.292;2022-07-23T07:42:21;94192.50;;;26.72;35.24
30935;BME280;51033;42.648;23.292;2022-07-23T07:44:47;94194.56;;;26.94;35.27
30935;BME280;51033;42.648;23.292;2022-07-23T07:47:12;94196.69;;;27.14;34.32
30935;BME280;51033;42.648;23.292;2022-07-23T07:49:40;94179.06;;;27.18;34.66
30935;BME280;51033;42.648;23.292;2022-07-23T07:52:06;94188.00;;;27.22;33.95
30935;BME280;51033;42.648;23.292;2022-07-23T07:54:31;94189.31;;;27.41;35.02
30935;BME280;51033;42.648;23.292;2022-07-23T07:56:57;94114.94;;;26.73;34.67
30935;BME280;51033;42.648;23.292;2022-07-23T07:59:23;94178.00;;;27.12;34.99
30935;BME280;51033;42.648;23.292;2022-07-23T08:01:48;94178.53;;;27.30;35.72
30935;BME280;51033;42.648;23.292;2022-07-23T08:04:13;94172.94;;;27.37;34.24
30935;BME280;51033;42.648;23.292;2022-07-23T08:06:39;94188.13;;;27.42;34.76
30935;BME280;51033;42.648;23.292;2022-07-23T08:09:04;94181.91;;;27.38;34.96
30935;BME280;51033;42.648;23.292;2022-07-23T08:11:29;94166.69;;;27.40;34.98
30935;BME280;51033;42.648;23.292;2022-07-23T08:13:55;94179.22;;;27.65;33.85
30935;BME280;51033;42.648;23.292;2022-07-23T08:16:21;94176.38;;;27.72;34.17
30935;BME280;51033;42.648;23.292;2022-07-23T08:18:46;94184.84;;;27.81;33.84
30935;BME280;51033;42.648;23.292;2022-07-23T08:21:11;94149.94;;;27.38;34.01
30935;BME280;51033;42.648;23.292;2022-07-23T08:23:37;94178.72;;;27.73;33.79
30935;BME280;51033;42.648;23.292;2022-07-23T08:26:02;94186.34;;;27.86;34.60
30935;BME280;51033;42.648;23.292;2022-07-23T08:28:28;94174.63;;;27.85;34.21
30935;BME280;51033;42.648;23.292;2022-07-23T08:30:53;94174.31;;;27.53;34.17
30935;BME280;51033;42.648;23.292;2022-07-23T08:33:19;94181.28;;;27.57;33.99
30935;BME280;51033;42.648;23.292;2022-07-23T08:35:47;94159.78;;;27.32;34.11
30935;BME280;51033;42.648;23.292;2022-07-23T08:38:15;94177.41;;;27.55;34.61
30935;BME280;51033;42.648;23.292;2022-07-23T08:40:52;94184.09;;;27.50;34.46
30935;BME280;51033;42.648;23.292;2022-07-23T08:43:23;94187.44;;;27.34;36.02
30935;BME280;51033;42.648;23.292;2022-07-23T08:45:50;94183.47;;;27.39;34.74
30935;BME280;51033;42.648;23.292;2022-07-23T08:48:17;94182.56;;;27.22;34.64
30935;BME280;51033;42.648;23.292;2022-07-23T08:50:53;94177.66;;;27.37;35.90
30935;BME280;51033;42.648;23.292;2022-07-23T08:53:20;94166.69;;;27.40;34.78
30935;BME280;51033;42.648;23.292;2022-07-23T08:55:48;94169.75;;;27.42;36.10
30935;BME280;51033;42.648;23.292;2022-07-23T08:58:14;94171.31;;;27.44;35.38
30935;BME280;51033;42.648;23.292;2022-07-23T09:00:41;94170.50;;;27.47;35.27
30935;BME280;51033;42.648;23.292;2022-07-23T09:03:06;94170.25;;;27.64;34.70
30935;BME280;51033;42.648;23.292;2022-07-23T09:05:32;94161.38;;;27.83;34.69
30935;BME280;51033;42.648;23.292;2022-07-23T09:10:49;94165.91;;;28.17;34.02
30935;BME280;51033;42.648;23.292;2022-07-23T09:13:28;94170.28;;;28.14;33.11
30935;BME280;51033;42.648;23.292;2022-07-23T09:15:56;94170.50;;;28.23;32.85
30935;BME280;51033;42.648;23.292;2022-07-23T09:23:43;94164.19;;;28.27;33.63
30935;BME280;51033;42.648;23.292;2022-07-23T09:26:17;94161.34;;;28.34;32.44
30935;BME280;51033;42.648;23.292;2022-07-23T09:28:57;94166.63;;;28.44;33.80
30935;BME280;51033;42.648;23.292;2022-07-23T09:31:24;94162.34;;;28.63;32.53
30935;BME280;51033;42.648;23.292;2022-07-23T09:33:50;94163.69;;;28.75;33.13
30935;BME280;51033;42.648;23.292;2022-07-23T09:36:15;94144.91;;;28.77;32.13
30935;BME280;51033;42.648;23.292;2022-07-23T09:38:51;94143.50;;;28.88;31.32
30935;BME280;51033;42.648;23.292;2022-07-23T09:41:17;94152.88;;;29.07;29.60
30935;BME280;51033;42.648;23.292;2022-07-23T09:43:43;94149.19;;;28.97;28.46
30935;BME280;51033;42.648;23.292;2022-07-23T09:48:48;94136.69;;;28.96;29.24
30935;BME280;51033;42.648;23.292;2022-07-23T09:51:14;94147.25;;;29.14;26.93
30935;BME280;51033;42.648;23.292;2022-07-23T09:54:01;94142.75;;;29.24;26.79
30935;BME280;51033;42.648;23.292;2022-07-23T09:56:27;94136.94;;;29.22;26.70
30935;BME280;51033;42.648;23.292;2022-07-23T09:58:54;94137.41;;;29.36;25.17
30935;BME280;51033;42.648;23.292;2022-07-23T10:01:31;94132.75;;;29.17;30.16
30935;BME280;51033;42.648;23.292;2022-07-23T10:03:58;94133.59;;;28.94;27.13
30935;BME280;51033;42.648;23.292;2022-07-23T10:06:24;94135.13;;;28.95;26.51
30935;BME280;51033;42.648;23.292;2022-07-23T10:08:50;94122.72;;;28.91;27.06
30935;BME280;51033;42.648;23.292;2022-07-23T10:11:16;94114.16;;;28.89;27.62
30935;BME280;51033;42.648;23.292;2022-07-23T10:13:42;94132.66;;;29.01;27.61
30935;BME280;51033;42.648;23.292;2022-07-23T10:16:28;94123.84;;;28.93;27.39
30935;BME280;51033;42.648;23.292;2022-07-23T10:18:54;94123.13;;;28.89;27.37
30935;BME280;51033;42.648;23.292;2022-07-23T10:21:25;94122.63;;;28.94;27.39
30935;BME280;51033;42.648;23.292;2022-07-23T10:24:05;94125.22;;;29.01;25.42
30935;BME280;51033;42.648;23.292;2022-07-23T10:34:50;94112.34;;;29.38;26.38
30935;BME280;51033;42.648;23.292;2022-07-23T10:37:23;94103.91;;;29.29;28.32
30935;BME280;51033;42.648;23.292;2022-07-23T10:40:12;94098.63;;;29.54;25.31
30935;BME280;51033;42.648;23.292;2022-07-23T10:42:38;94104.63;;;29.65;25.47
30935;BME280;51033;42.648;23.292;2022-07-23T10:47:50;94094.72;;;29.87;26.17
30935;BME280;51033;42.648;23.292;2022-07-23T10:53:19;94088.78;;;30.05;23.48
30935;BME280;51033;42.648;23.292;2022-07-23T10:55:47;94089.88;;;30.08;23.62
30935;BME280;51033;42.648;23.292;2022-07-23T10:58:19;94083.09;;;30.12;26.06
30935;BME280;51033;42.648;23.292;2022-07-23T11:00:44;94077.19;;;30.14;23.70
30935;BME280;51033;42.648;23.292;2022-07-23T11:03:32;94080.25;;;30.32;23.98
30935;BME280;51033;42.648;23.292;2022-07-23T11:06:02;94065.72;;;30.19;23.47
30935;BME280;51033;42.648;23.292;2022-07-23T11:08:27;94069.50;;;30.25;23.06
30935;BME280;51033;42.648;23.292;2022-07-23T11:11:16;94073.38;;;30.40;22.95
30935;BME280;51033;42.648;23.292;2022-07-23T11:13:45;94062.47;;;30.24;20.27
30935;BME280;51033;42.648;23.292;2022-07-23T11:16:22;94048.66;;;30.11;21.53
30935;BME280;51033;42.648;23.292;2022-07-23T11:24:03;94055.09;;;30.21;19.29
30935;BME280;51033;42.648;23.292;2022-07-23T11:34:29;94048.34;;;30.38;20.85
30935;BME280;51033;42.648;23.292;2022-07-23T11:36:55;94047.69;;;30.34;20.21
30935;BME280;51033;42.648;23.292;2022-07-23T11:39:20;94032.34;;;30.49;20.36
30935;BME280;51033;42.648;23.292;2022-07-23T11:41:49;94048.59;;;30.44;19.78
30935;BME280;51033;42.648;23.292;2022-07-23T11:44:28;94045.00;;;30.59;18.41
30935;BME280;51033;42.648;23.292;2022-07-23T11:46:58;94022.28;;;30.59;18.91
30935;BME280;51033;42.648;23.292;2022-07-23T11:49:24;94037.88;;;30.62;19.83
30935;BME280;51033;42.648;23.292;2022-07-23T11:52:12;94040.19;;;30.63;20.23
30935;BME280;51033;42.648;23.292;2022-07-23T11:57:25;94034.25;;;30.65;21.53
30935;BME280;51033;42.648;23.292;2022-07-23T11:59:54;94029.19;;;30.63;20.27
30935;BME280;51033;42.648;23.292;2022-07-23T12:02:21;94016.00;;;30.58;20.61
30935;BME280;51033;42.648;23.292;2022-07-23T12:04:49;94025.44;;;30.57;20.00
30935;BME280;51033;42.648;23.292;2022-07-23T12:07:35;94011.59;;;30.48;22.69
30935;BME280;51033;42.648;23.292;2022-07-23T12:13:04;94032.66;;;30.80;19.13
30935;BME280;51033;42.648;23.292;2022-07-23T12:15:36;94016.56;;;30.53;18.70
30935;BME280;51033;42.648;23.292;2022-07-23T12:18:04;94022.06;;;30.66;18.90
30935;BME280;51033;42.648;23.292;2022-07-23T12:20:33;94015.78;;;30.53;18.41
30935;BME280;51033;42.648;23.292;2022-07-23T12:23:01;94013.41;;;30.67;17.13
30935;BME280;51033;42.648;23.292;2022-07-23T12:25:32;94013.22;;;30.87;17.66
30935;BME280;51033;42.648;23.292;2022-07-23T12:28:13;93998.53;;;30.94;17.49
30935;BME280;51033;42.648;23.292;2022-07-23T12:33:05;93996.97;;;30.93;16.73
30935;BME280;51033;42.648;23.292;2022-07-23T12:35:36;94013.22;;;31.00;16.32
30935;BME280;51033;42.648;23.292;2022-07-23T12:38:10;94009.50;;;31.19;15.71
30935;BME280;51033;42.648;23.292;2022-07-23T12:40:49;93999.72;;;31.31;16.04
30935;BME280;51033;42.648;23.292;2022-07-23T12:43:28;94001.69;;;31.43;16.17
30935;BME280;51033;42.648;23.292;2022-07-23T12:46:12;93997.13;;;31.61;15.79
30935;BME280;51033;42.648;23.292;2022-07-23T12:51:22;93989.06;;;31.80;17.93
30935;BME280;51033;42.648;23.292;2022-07-23T12:53:49;93982.84;;;31.54;16.49
30935;BME280;51033;42.648;23.292;2022-07-23T12:56:35;93974.31;;;31.39;14.93
30935;BME280;51033;42.648;23.292;2022-07-23T13:01:59;93972.06;;;31.59;17.47
30935;BME280;51033;42.648;23.292;2022-07-23T13:04:24;93983.50;;;31.71;17.00
30935;BME280;51033;42.648;23.292;2022-07-23T13:06:53;93984.78;;;31.79;17.55
30935;BME280;51033;42.648;23.292;2022-07-23T13:09:24;93963.91;;;31.69;17.24
30935;BME280;51033;42.648;23.292;2022-07-23T13:11:50;93988.00;;;31.77;17.19
30935;BME280;51033;42.648;23.292;2022-07-23T13:14:17;93974.84;;;31.94;18.88
30935;BME280;51033;42.648;23.292;2022-07-23T13:16:44;93944.31;;;31.79;16.68
30935;BME280;51033;42.648;23.292;2022-07-23T13:19:10;93977.88;;;32.30;15.84
30935;BME280;51033;42.648;23.292;2022-07-23T13:21:36;93958.66;;;32.39;14.85
30935;BME280;51033;42.648;23.292;2022-07-23T13:24:02;93960.88;;;32.54;14.50
30935;BME280;51033;42.648;23.292;2022-07-23T13:26:28;93964.34;;;32.67;14.76
30935;BME280;51033;42.648;23.292;2022-07-23T13:28:53;93973.97;;;32.62;21.27
30935;BME280;51033;42.648;23.292;2022-07-23T13:31:19;93966.06;;;32.52;20.45
30935;BME280;51033;42.648;23.292;2022-07-23T13:33:45;93962.31;;;32.36;15.76
30935;BME280;51033;42.648;23.292;2022-07-23T13:36:11;93955.72;;;32.34;16.34
30935;BME280;51033;42.648;23.292;2022-07-23T13:38:36;93949.13;;;32.31;16.50
30935;BME280;51033;42.648;23.292;2022-07-23T13:41:02;93947.22;;;32.19;16.24